createdAt,value
2019-04-14T00:02:47.559Z,44.60
2019-04-14T00:05:21.075Z,44.30
2019-04-14T00:07:53.912Z,44.00
2019-04-14T00:10:26.788Z,44.70
2019-04-14T00:12:59.972Z,44.80
2019-04-14T00:15:38.897Z,44.70
2019-04-14T00:18:07.503Z,44.80
2019-04-14T00:20:40.482Z,44.10
2019-04-14T00:23:13.087Z,44.10
2019-04-14T00:25:45.918Z,44.30
2019-04-14T00:28:18.489Z,44.20
2019-04-14T00:30:51.258Z,44.50
2019-04-14T00:33:24.536Z,44.50
2019-04-14T00:36:08.746Z,44.90
2019-04-14T00:38:43.591Z,44.50
2019-04-14T00:41:52.650Z,44.80
2019-04-14T00:44:45.614Z,44.90
2019-04-14T00:47:24.647Z,45.20
2019-04-14T00:49:57.183Z,44.20
2019-04-14T00:52:30.038Z,44.70
2019-04-14T00:55:03.350Z,45.00
2019-04-14T00:57:37.574Z,45.00
2019-04-14T01:00:10.385Z,44.50
2019-04-14T01:02:43.336Z,44.80
2019-04-14T01:05:15.947Z,44.70
2019-04-14T01:07:48.344Z,44.90
2019-04-14T01:10:21.310Z,44.90
2019-04-14T01:12:53.983Z,45.30
2019-04-14T01:15:26.760Z,44.70
2019-04-14T01:17:59.455Z,44.70
2019-04-14T01:20:31.886Z,45.10
2019-04-14T01:23:04.330Z,45.10
2019-04-14T01:25:37.344Z,44.70
2019-04-14T01:28:09.849Z,44.90
2019-04-14T01:30:41.908Z,44.60
2019-04-14T01:33:14.418Z,45.10
2019-04-14T01:35:48.849Z,44.70
2019-04-14T01:38:21.448Z,45.20
2019-04-14T01:40:55.178Z,45.20
2019-04-14T01:43:27.889Z,44.90
2019-04-14T01:46:09.571Z,45.10
2019-04-14T01:48:34.610Z,44.90
2019-04-14T01:51:24.543Z,44.30
2019-04-14T01:54:23.544Z,44.50
2019-04-14T01:57:15.364Z,44.50
2019-04-14T01:59:48.234Z,44.80
2019-04-14T02:02:23.390Z,44.70
2019-04-14T02:04:55.861Z,45.00
2019-04-14T02:07:29.654Z,44.60
2019-04-14T02:10:02.355Z,45.20
2019-04-14T02:12:34.963Z,45.20
2019-04-14T02:15:09.101Z,45.00
2019-04-14T02:17:42.334Z,45.00
2019-04-14T02:20:14.895Z,44.70
2019-04-14T02:22:48.375Z,45.10
2019-04-14T02:25:21.050Z,44.80
2019-04-14T02:27:53.884Z,44.50
2019-04-14T02:30:34.036Z,45.00
2019-04-14T02:33:37.094Z,44.90
2019-04-14T02:36:27.543Z,44.80
2019-04-14T02:38:52.625Z,45.00
2019-04-14T02:43:54.556Z,44.90
2019-04-14T02:46:20.506Z,45.10
2019-04-14T02:48:58.329Z,45.10
2019-04-14T02:59:07.526Z,45.10
2019-04-14T03:02:19.574Z,44.90
2019-04-14T03:09:30.535Z,44.20
2019-04-14T03:11:54.957Z,45.00
2019-04-14T03:14:31.014Z,44.90
2019-04-14T03:17:25.055Z,45.10
2019-04-14T03:25:22.601Z,45.20
2019-04-14T03:28:39.802Z,45.00
2019-04-14T03:37:21.986Z,45.10
2019-04-14T03:39:03.511Z,44.50
2019-04-14T03:43:54.916Z,44.50
2019-04-14T03:51:53.362Z,44.80
2019-04-14T03:54:08.465Z,45.10
2019-04-14T03:56:55.659Z,45.10
2019-04-14T03:59:28.330Z,44.70
2019-04-14T04:02:00.983Z,45.40
2019-04-14T04:04:33.764Z,44.70
2019-04-14T04:07:06.355Z,45.30
2019-04-14T04:09:45.363Z,45.30
2019-04-14T04:12:18.336Z,45.50
2019-04-14T04:14:51.093Z,46.10
2019-04-14T04:17:36.438Z,45.30
2019-04-14T04:20:28.556Z,45.70
2019-04-14T04:23:26.995Z,45.50
2019-04-14T04:26:21.291Z,45.00
2019-04-14T04:29:11.168Z,45.20
2019-04-14T04:32:12.143Z,45.50
2019-04-14T04:35:06.541Z,45.20
2019-04-14T04:37:50.024Z,45.30
2019-04-14T04:40:25.328Z,45.10
2019-04-14T04:42:59.105Z,45.40
2019-04-14T04:45:32.032Z,45.50
2019-04-14T04:48:04.922Z,45.50
2019-04-14T04:50:38.868Z,45.30
2019-04-14T04:53:11.506Z,45.50
2019-04-14T04:55:43.798Z,45.10
2019-04-14T04:58:17.286Z,45.50
2019-04-14T05:00:52.501Z,45.20
2019-04-14T05:03:25.332Z,44.50
2019-04-14T05:06:59.048Z,44.50
2019-04-14T05:09:49.357Z,43.60
2019-04-14T05:12:52.730Z,42.90
2019-04-14T05:15:42.425Z,41.20
2019-04-14T05:18:26.792Z,40.40
2019-04-14T05:20:59.620Z,39.80
2019-04-14T05:23:32.103Z,39.40
2019-04-14T05:26:04.989Z,39.00
2019-04-14T05:28:37.873Z,38.70
2019-04-14T05:31:10.320Z,39.00
2019-04-14T05:33:43.313Z,38.10
2019-04-14T05:36:17.089Z,37.80
2019-04-14T05:38:51.676Z,37.80
2019-04-14T05:41:24.472Z,37.50
2019-04-14T05:43:59.905Z,37.20
2019-04-14T05:46:31.727Z,37.10
2019-04-14T05:49:04.435Z,36.40
2019-04-14T05:51:37.277Z,36.90
2019-04-14T05:54:10.333Z,36.80
2019-04-14T05:56:42.894Z,36.90
2019-04-14T05:59:15.677Z,36.50
2019-04-14T06:01:48.769Z,36.60
2019-04-14T06:04:22.125Z,36.50
2019-04-14T06:06:54.893Z,36.40
2019-04-14T06:09:27.588Z,36.70
2019-04-14T06:11:59.849Z,36.60
2019-04-14T06:14:32.392Z,36.60
2019-04-14T06:17:04.928Z,37.00
2019-04-14T06:19:40.550Z,37.30
2019-04-14T06:22:11.020Z,37.60
2019-04-14T06:24:43.089Z,37.80
2019-04-14T06:27:15.301Z,40.00
2019-04-14T06:29:49.897Z,40.90
2019-04-14T06:32:43.827Z,41.30
2019-04-14T06:35:22.077Z,42.20
2019-04-14T06:41:02.877Z,42.10
2019-04-14T06:43:34.897Z,42.20
2019-04-14T06:46:07.383Z,42.30
2019-04-14T06:48:39.889Z,42.50
2019-04-14T06:51:11.921Z,42.60
2019-04-14T06:53:44.287Z,42.80
2019-04-14T06:56:16.875Z,42.70
2019-04-14T06:58:49.492Z,42.70
2019-04-14T07:01:21.880Z,42.70
2019-04-14T07:03:54.634Z,42.90
2019-04-14T07:11:31.495Z,42.40
2019-04-14T07:14:03.895Z,43.70
2019-04-14T07:16:44.877Z,43.10
2019-04-14T07:19:17.486Z,42.80
2019-04-14T07:21:49.793Z,43.10
2019-04-14T07:24:22.470Z,42.60
2019-04-14T07:27:32.795Z,41.80
2019-04-14T07:30:22.505Z,41.70
2019-04-14T07:33:02.376Z,41.30
2019-04-14T07:36:02.315Z,41.60
2019-04-14T07:38:44.910Z,41.80
2019-04-14T07:41:28.910Z,42.10
2019-04-14T07:44:39.516Z,42.20
2019-04-14T07:47:32.836Z,42.30
2019-04-14T07:50:30.466Z,42.70
2019-04-14T07:53:15.306Z,42.80
2019-04-14T07:56:09.284Z,42.30
2019-04-14T07:59:02.907Z,42.70
2019-04-14T08:02:10.466Z,42.70
2019-04-14T08:04:48.200Z,43.20
2019-04-14T08:07:21.924Z,43.10
2019-04-14T08:09:57.882Z,43.10
2019-04-14T08:12:30.109Z,43.00
2019-04-14T08:15:03.105Z,43.40
2019-04-14T08:17:36.155Z,42.90
2019-04-14T08:20:09.369Z,43.50
2019-04-14T08:22:41.867Z,43.80
2019-04-14T08:25:14.323Z,43.30
2019-04-14T08:27:47.559Z,43.50
2019-04-14T08:30:19.881Z,43.50
2019-04-14T08:32:53.075Z,43.40
2019-04-14T08:35:25.654Z,43.80
2019-04-14T08:38:00.074Z,43.80
2019-04-14T08:40:32.369Z,43.60
2019-04-14T08:43:36.358Z,44.00
2019-04-14T08:46:33.885Z,44.20
2019-04-14T08:49:17.367Z,44.30
2019-04-14T08:52:07.419Z,44.50
2019-04-14T08:54:45.499Z,44.10
2019-04-14T08:57:34.343Z,44.40
2019-04-14T09:00:12.790Z,44.30
2019-04-14T09:03:22.654Z,44.30
2019-04-14T09:06:13.530Z,44.10
2019-04-14T09:09:17.019Z,44.10
2019-04-14T09:11:56.696Z,44.60
2019-04-14T09:14:28.922Z,44.70
2019-04-14T09:17:01.375Z,44.30
2019-04-14T09:19:33.873Z,44.70
2019-04-14T09:22:06.089Z,44.70
2019-04-14T09:24:38.696Z,44.60
2019-04-14T09:32:15.614Z,43.70
2019-04-14T09:34:47.916Z,44.10
2019-04-14T09:37:21.325Z,44.40
2019-04-14T09:39:54.377Z,45.00
2019-04-14T09:42:27.033Z,45.00
2019-04-14T09:44:59.379Z,45.10
2019-04-14T09:47:32.331Z,45.10
2019-04-14T09:50:05.324Z,45.30
2019-04-14T09:52:37.939Z,45.30
2019-04-14T09:55:15.431Z,45.30
2019-04-14T09:57:57.523Z,45.30
2019-04-14T10:00:30.766Z,45.40
2019-04-14T10:03:03.850Z,45.50
2019-04-14T10:05:35.872Z,45.50
2019-04-14T10:08:08.329Z,45.50
2019-04-14T10:11:03.679Z,45.00
2019-04-14T10:13:35.850Z,45.20
2019-04-14T10:16:08.104Z,45.60
2019-04-14T10:18:40.385Z,45.20
2019-04-14T10:21:17.593Z,45.20
2019-04-14T10:23:46.863Z,45.30
2019-04-14T10:26:18.915Z,45.00
2019-04-14T10:28:51.719Z,45.40
2019-04-14T10:31:23.881Z,45.40
2019-04-14T10:33:56.922Z,45.50
2019-04-14T10:36:29.883Z,45.60
2019-04-14T10:39:02.103Z,45.40
2019-04-14T10:41:35.280Z,45.60
2019-04-14T10:44:08.356Z,45.50
2019-04-14T10:46:40.897Z,45.40
2019-04-14T10:49:13.327Z,45.60
2019-04-14T10:51:45.862Z,45.60
2019-04-14T10:54:17.930Z,45.40
2019-04-14T10:56:51.454Z,45.60
2019-04-14T10:59:33.239Z,45.50
2019-04-14T11:02:05.018Z,45.60
2019-04-14T11:04:37.388Z,45.50
2019-04-14T11:07:23.427Z,45.60
2019-04-14T11:09:55.783Z,45.30
2019-04-14T11:12:30.997Z,45.40
2019-04-14T11:15:03.891Z,45.40
2019-04-14T11:17:37.368Z,45.40
2019-04-14T11:20:09.862Z,45.20
2019-04-14T11:22:41.890Z,45.60
2019-04-14T11:25:13.871Z,45.20
2019-04-14T11:27:46.024Z,45.20
2019-04-14T11:30:21.485Z,45.50
2019-04-14T11:33:15.328Z,45.40
2019-04-14T11:35:55.308Z,45.70
2019-04-14T11:38:34.406Z,45.50
2019-04-14T11:41:10.907Z,45.60
2019-04-14T11:43:43.289Z,45.40
2019-04-14T11:46:17.359Z,45.60
2019-04-14T11:48:49.886Z,45.50
2019-04-14T11:51:21.898Z,45.80
2019-04-14T11:53:54.330Z,45.70
2019-04-14T11:56:26.883Z,45.70
2019-04-14T11:59:00.313Z,46.00
2019-04-14T12:01:51.068Z,45.80
2019-04-14T12:04:30.441Z,45.90
2019-04-14T12:07:24.376Z,45.80
2019-04-14T12:10:02.452Z,44.80
2019-04-14T12:12:35.464Z,43.60
2019-04-14T12:15:16.208Z,42.80
2019-04-14T12:17:43.883Z,41.90
2019-04-14T12:20:16.453Z,41.30
2019-04-14T12:22:49.097Z,40.90
2019-04-14T12:25:21.405Z,40.40
2019-04-14T12:27:53.990Z,39.80
2019-04-14T12:30:26.898Z,39.40
2019-04-14T12:32:59.637Z,39.40
2019-04-14T12:35:30.737Z,39.10
2019-04-14T12:38:03.099Z,38.90
2019-04-14T12:40:36.900Z,39.40
2019-04-14T12:43:30.694Z,39.50
2019-04-14T12:46:33.907Z,39.60
2019-04-14T12:49:14.571Z,39.20
2019-04-14T12:52:05.461Z,39.60
2019-04-14T12:54:38.075Z,39.50
2019-04-14T12:57:13.064Z,39.40
2019-04-14T12:59:44.846Z,39.30
2019-04-14T13:02:26.094Z,39.10
2019-04-14T13:04:58.323Z,39.40
2019-04-14T13:07:30.845Z,39.20
2019-04-14T13:10:02.841Z,40.10
2019-04-14T13:12:34.888Z,39.50
2019-04-14T13:15:07.931Z,39.80
2019-04-14T13:17:40.015Z,40.10
2019-04-14T13:20:15.330Z,40.50
2019-04-14T13:22:47.993Z,40.60
2019-04-14T13:25:21.758Z,40.70
2019-04-14T13:27:53.180Z,40.90
2019-04-14T13:30:29.652Z,41.00
2019-04-14T13:33:01.817Z,41.30
2019-04-14T13:35:34.309Z,42.60
2019-04-14T13:38:06.874Z,43.20
2019-04-14T13:40:39.859Z,43.30
2019-04-14T13:43:11.894Z,43.30
2019-04-14T13:45:43.887Z,43.40
2019-04-14T13:48:15.909Z,43.80
2019-04-14T13:50:48.118Z,43.90
2019-04-14T13:53:20.885Z,44.00
2019-04-14T13:55:54.653Z,44.10
2019-04-14T13:58:27.329Z,44.30
2019-04-14T14:01:00.043Z,44.00
2019-04-14T14:03:32.327Z,44.50
2019-04-14T14:06:05.362Z,44.30
2019-04-14T14:08:37.883Z,44.10
2019-04-14T14:11:28.864Z,43.70
2019-04-14T14:14:17.651Z,43.50
2019-04-14T14:17:06.423Z,43.00
2019-04-14T14:19:57.907Z,42.40
2019-04-14T14:23:35.647Z,42.30
2019-04-14T14:26:10.132Z,42.00
2019-04-14T14:28:42.392Z,41.20
2019-04-14T14:31:14.912Z,41.60
2019-04-14T14:33:47.032Z,41.70
2019-04-14T14:36:19.326Z,41.80
2019-04-14T14:38:52.900Z,41.90
2019-04-14T14:41:25.104Z,42.10
2019-04-14T14:43:57.465Z,42.20
2019-04-14T14:46:47.681Z,42.50
2019-04-14T14:49:24.272Z,43.20
2019-04-14T14:52:09.089Z,44.00
2019-04-14T14:54:41.329Z,44.10
2019-04-14T14:57:13.902Z,44.10
2019-04-14T14:59:46.055Z,44.10
2019-04-14T15:02:19.131Z,44.10
2019-04-14T15:04:52.008Z,44.20
2019-04-14T15:07:25.481Z,44.30
2019-04-14T15:09:57.914Z,44.50
2019-04-14T15:12:31.017Z,44.60
2019-04-14T15:15:03.325Z,44.70
2019-04-14T15:17:45.177Z,44.70
2019-04-14T15:20:17.851Z,44.60
2019-04-14T15:22:52.291Z,44.50
2019-04-14T15:25:22.962Z,44.50
2019-04-14T15:27:55.360Z,44.50
2019-04-14T15:30:27.887Z,44.50
2019-04-14T15:32:59.925Z,44.30
2019-04-14T15:35:31.888Z,44.40
2019-04-14T15:38:04.342Z,44.40
2019-04-14T15:40:37.316Z,44.50
2019-04-14T15:43:10.040Z,44.50
2019-04-14T15:45:43.441Z,44.60
2019-04-14T15:48:16.137Z,44.70
2019-04-14T15:50:48.897Z,44.70
2019-04-14T15:53:21.375Z,44.90
2019-04-14T15:55:54.325Z,44.90
2019-04-14T15:58:48.565Z,45.00
2019-04-14T16:01:39.313Z,45.00
2019-04-14T16:04:30.551Z,44.80
2019-04-14T16:07:26.444Z,45.30
2019-04-14T16:10:08.815Z,45.10
2019-04-14T16:12:51.341Z,44.80
2019-04-14T16:15:52.006Z,44.70
2019-04-14T16:18:45.831Z,44.20
2019-04-14T16:21:17.868Z,43.60
2019-04-14T16:23:51.057Z,43.40
2019-04-14T16:26:31.853Z,43.10
2019-04-14T16:29:26.531Z,42.90
2019-04-14T16:32:07.329Z,42.90
2019-04-14T16:35:04.638Z,42.30
2019-04-14T16:37:35.680Z,42.90
2019-04-14T16:40:07.633Z,42.90
2019-04-14T16:42:40.171Z,42.80
2019-04-14T16:45:12.482Z,43.10
2019-04-14T16:47:45.996Z,43.70
2019-04-14T16:50:20.099Z,44.00
2019-04-14T16:53:03.606Z,44.20
2019-04-14T16:55:57.419Z,44.80
2019-04-14T16:58:55.115Z,45.00
2019-04-14T17:01:32.515Z,45.40
2019-04-14T17:04:04.921Z,45.70
2019-04-14T17:06:36.886Z,45.40
2019-04-14T17:09:10.862Z,46.10
2019-04-14T17:11:43.466Z,46.40
2019-04-14T17:14:36.187Z,46.30
2019-04-14T17:17:36.819Z,46.50
2019-04-14T17:20:22.422Z,46.50
2019-04-14T17:23:31.921Z,46.70
2019-04-14T17:26:21.844Z,46.80
2019-04-14T17:29:22.416Z,47.00
2019-04-14T17:32:09.985Z,46.90
2019-04-14T17:35:00.914Z,47.10
2019-04-14T17:37:54.633Z,47.20
2019-04-14T17:40:44.264Z,47.20
2019-04-14T17:43:39.658Z,47.30
2019-04-14T17:46:22.896Z,47.30
2019-04-14T17:49:13.569Z,46.90
2019-04-14T17:52:07.668Z,47.30
2019-04-14T17:54:48.476Z,47.20
2019-04-14T18:03:12.884Z,45.20
2019-04-14T18:05:51.840Z,45.50
2019-04-14T18:08:41.823Z,45.00
2019-04-14T18:11:51.824Z,44.80
2019-04-14T18:14:39.667Z,44.40
2019-04-14T18:17:30.135Z,44.30
2019-04-14T18:20:08.464Z,43.90
2019-04-14T18:22:41.100Z,44.20
2019-04-14T18:25:17.401Z,44.40
2019-04-14T18:28:09.983Z,44.50
2019-04-14T18:30:48.323Z,44.60
2019-04-14T18:33:46.400Z,44.80
2019-04-14T18:36:29.556Z,45.70
2019-04-14T18:39:20.487Z,46.00
2019-04-14T18:42:08.774Z,45.50
2019-04-14T18:44:49.267Z,46.00
2019-04-14T18:47:43.721Z,46.10
2019-04-14T18:50:18.967Z,46.40
2019-04-14T18:53:19.341Z,46.30
2019-04-14T18:56:01.469Z,46.30
2019-04-14T18:58:58.822Z,46.40
2019-04-14T19:01:34.908Z,46.50
2019-04-14T19:04:06.918Z,46.50
2019-04-14T19:06:39.176Z,46.60
2019-04-14T19:09:12.353Z,46.60
2019-04-14T19:11:56.769Z,46.70
2019-04-14T19:14:33.868Z,46.90
2019-04-14T19:17:11.115Z,46.90
2019-04-14T19:20:00.589Z,46.90
2019-04-14T19:22:23.122Z,46.90
2019-04-14T19:25:07.361Z,46.90
2019-04-14T19:27:30.503Z,47.00
2019-04-14T19:30:03.165Z,46.80
2019-04-14T19:32:36.122Z,47.00
2019-04-14T19:35:08.873Z,47.20
2019-04-14T19:37:42.420Z,47.30
2019-04-14T19:40:15.112Z,47.20
2019-04-14T19:42:47.994Z,47.30
2019-04-14T19:45:20.659Z,47.20
2019-04-14T19:47:53.129Z,47.20
2019-04-14T19:50:25.881Z,46.80
2019-04-14T19:53:00.414Z,47.30
2019-04-14T19:55:32.863Z,47.50
2019-04-14T19:58:08.320Z,47.50
2019-04-14T20:00:44.331Z,47.60
2019-04-14T20:03:16.838Z,47.60
2019-04-14T20:05:48.896Z,47.60
2019-04-14T20:08:22.019Z,47.60
2019-04-14T20:10:59.876Z,47.70
2019-04-14T20:13:37.606Z,47.70
2019-04-14T20:16:28.089Z,47.80
2019-04-14T20:19:11.575Z,47.30
2019-04-14T20:22:18.326Z,47.80
2019-04-14T20:24:57.504Z,47.60
2019-04-14T20:27:36.868Z,47.80
2019-04-14T20:30:16.392Z,47.80
2019-04-14T20:32:49.695Z,47.80
2019-04-14T20:35:21.622Z,47.80
2019-04-14T20:37:54.856Z,47.50
2019-04-14T20:40:27.358Z,47.80
2019-04-14T20:45:46.867Z,47.80
2019-04-14T20:48:19.067Z,47.80
2019-04-14T20:50:51.758Z,47.70
2019-04-14T20:53:25.134Z,47.60
2019-04-14T20:55:57.335Z,47.60
2019-04-14T20:58:30.314Z,48.30
2019-04-14T21:01:04.487Z,47.60
2019-04-14T21:09:26.407Z,46.70
2019-04-14T21:12:13.901Z,47.30
2019-04-14T21:15:07.725Z,47.50
2019-04-14T21:18:03.676Z,47.50
2019-04-14T21:21:00.398Z,47.20
2019-04-14T21:23:50.407Z,47.20
2019-04-14T21:26:37.330Z,47.70
2019-04-14T21:29:13.850Z,47.70
2019-04-14T21:31:50.477Z,47.70
2019-04-14T21:34:56.076Z,47.70
2019-04-14T21:38:06.665Z,47.70
2019-04-14T21:40:57.462Z,47.70
2019-04-14T21:43:30.854Z,47.20
2019-04-14T21:46:03.079Z,47.70
2019-04-14T21:48:36.478Z,47.70
2019-04-14T21:51:09.525Z,47.60
2019-04-14T21:53:42.334Z,47.60
2019-04-14T21:56:14.871Z,47.60
2019-04-14T21:59:02.298Z,47.60
2019-04-14T22:01:56.333Z,47.60
2019-04-14T22:05:47.345Z,47.50
2019-04-14T22:08:25.438Z,47.50
2019-04-14T22:11:04.402Z,47.60
2019-04-14T22:13:36.878Z,47.20
2019-04-14T22:16:11.833Z,47.60
2019-04-14T22:18:44.889Z,47.60
2019-04-14T22:21:17.359Z,47.50
2019-04-14T22:24:00.386Z,47.40
2019-04-14T22:26:26.256Z,47.50
2019-04-14T22:28:56.917Z,47.50
2019-04-14T22:31:29.871Z,47.50
2019-04-14T22:34:05.628Z,47.70
2019-04-14T22:36:37.873Z,47.90
2019-04-14T22:39:14.058Z,47.30
2019-04-14T22:41:46.849Z,47.70
2019-04-14T22:44:19.380Z,47.70
2019-04-14T22:46:52.347Z,47.70
2019-04-14T22:49:24.960Z,47.70
2019-04-14T22:51:57.102Z,47.60
2019-04-14T22:54:30.360Z,47.50
2019-04-14T22:57:02.906Z,47.50
2019-04-14T22:59:34.996Z,47.70
2019-04-14T23:02:19.744Z,47.70
2019-04-14T23:05:19.772Z,47.80
2019-04-14T23:08:38.863Z,47.70
2019-04-14T23:11:37.512Z,47.70
2019-04-14T23:14:25.517Z,47.30
2019-04-14T23:17:19.371Z,47.70
2019-04-14T23:20:10.593Z,47.80
2019-04-14T23:22:59.393Z,47.60
2019-04-14T23:25:39.498Z,47.20
2019-04-14T23:28:15.917Z,47.40
2019-04-14T23:30:48.060Z,47.60
2019-04-14T23:33:20.379Z,47.70
2019-04-14T23:35:53.083Z,47.70
2019-04-14T23:38:25.872Z,47.70
2019-04-14T23:40:58.355Z,47.60
2019-04-14T23:43:30.890Z,47.70
2019-04-14T23:46:03.357Z,47.60
2019-04-14T23:48:36.329Z,47.60
2019-04-14T23:51:09.300Z,47.60
2019-04-14T23:53:41.852Z,47.60
2019-04-14T23:56:14.024Z,47.60
2019-04-14T23:58:46.333Z,47.60
